createdAt,value
2023-01-10T00:00:32.194Z,4.78
2023-01-10T00:02:59.059Z,4.72
2023-01-10T00:05:25.562Z,4.71
2023-01-10T00:07:52.151Z,4.72
2023-01-10T00:10:19.005Z,4.71
2023-01-10T00:13:04.292Z,4.76
2023-01-10T00:15:35.270Z,4.71
2023-01-10T00:18:02.200Z,4.67
2023-01-10T00:20:28.714Z,4.64
2023-01-10T00:22:55.150Z,4.72
2023-01-10T00:25:21.766Z,4.70
2023-01-10T00:28:07.591Z,4.70
2023-01-10T00:30:35.174Z,4.69
2023-01-10T00:33:02.073Z,4.62
2023-01-10T00:35:28.745Z,4.65
2023-01-10T00:38:01.321Z,4.66
2023-01-10T00:40:27.815Z,4.65
2023-01-10T00:43:12.921Z,4.70
2023-01-10T00:45:39.377Z,4.70
2023-01-10T00:48:06.015Z,4.66
2023-01-10T00:50:32.536Z,4.68
2023-01-10T00:52:59.241Z,4.69
2023-01-10T00:55:25.883Z,4.71
2023-01-10T00:57:52.380Z,4.72
2023-01-10T01:00:19.126Z,4.67
2023-01-10T01:02:46.056Z,4.73
2023-01-10T01:05:12.531Z,4.69
2023-01-10T01:07:39.010Z,4.64
2023-01-10T01:10:24.303Z,4.73
2023-01-10T01:12:51.003Z,4.73
2023-01-10T01:15:17.521Z,4.68
2023-01-10T01:17:44.073Z,4.77
2023-01-10T01:20:11.104Z,4.65
2023-01-10T01:22:37.676Z,4.68
2023-01-10T01:25:05.145Z,4.65
2023-01-10T01:27:32.069Z,4.62
2023-01-10T01:29:58.693Z,4.65
2023-01-10T01:32:25.147Z,4.66
2023-01-10T01:34:51.742Z,4.68
2023-01-10T01:37:19.973Z,4.69
2023-01-10T01:39:49.333Z,4.69
2023-01-10T01:42:27.379Z,4.67
2023-01-10T01:45:09.138Z,4.69
2023-01-10T01:47:48.955Z,4.69
2023-01-10T01:50:23.104Z,4.73
2023-01-10T01:52:53.464Z,4.75
2023-01-10T01:55:20.629Z,4.77
2023-01-10T01:57:47.917Z,4.75
2023-01-10T02:00:14.823Z,4.82
2023-01-10T02:03:01.260Z,4.79
2023-01-10T02:05:30.128Z,4.80
2023-01-10T02:07:57.793Z,4.72
2023-01-10T02:10:26.936Z,4.73
2023-01-10T02:12:54.854Z,4.81
2023-01-10T02:15:21.793Z,4.74
2023-01-10T02:17:49.330Z,4.70
2023-01-10T02:20:16.636Z,4.76
2023-01-10T02:23:04.527Z,4.75
2023-01-10T02:26:05.146Z,4.76
2023-01-10T02:28:37.539Z,4.79
2023-01-10T02:31:38.179Z,4.82
2023-01-10T02:34:52.506Z,4.84
2023-01-10T02:37:21.939Z,4.86
2023-01-10T02:39:54.220Z,4.80
2023-01-10T02:42:43.026Z,4.70
2023-01-10T02:45:13.709Z,4.67
2023-01-10T02:47:41.650Z,4.69
2023-01-10T02:50:36.277Z,4.65
2023-01-10T02:53:06.281Z,4.67
2023-01-10T02:55:58.781Z,4.65
2023-01-10T02:59:06.532Z,4.76
2023-01-10T03:01:51.667Z,4.63
2023-01-10T03:04:27.200Z,4.71
2023-01-10T03:07:03.128Z,4.71
2023-01-10T03:09:36.076Z,4.68
2023-01-10T03:12:19.133Z,4.71
2023-01-10T03:14:47.936Z,4.75
2023-01-10T03:17:16.035Z,4.77
2023-01-10T03:19:49.976Z,4.73
2023-01-10T03:22:17.451Z,4.70
2023-01-10T03:24:47.843Z,4.78
2023-01-10T03:27:24.659Z,4.73
2023-01-10T03:29:51.033Z,4.71
2023-01-10T03:32:21.490Z,4.71
2023-01-10T03:34:48.034Z,4.70
2023-01-10T03:37:22.232Z,4.67
2023-01-10T03:40:15.199Z,4.68
2023-01-10T03:43:06.876Z,4.68
2023-01-10T03:45:44.408Z,4.71
2023-01-10T03:48:12.333Z,4.76
2023-01-10T03:50:40.399Z,4.73
2023-01-10T03:53:06.993Z,4.76
2023-01-10T03:55:35.064Z,4.74
2023-01-10T03:58:01.615Z,4.75
2023-01-10T04:00:28.190Z,4.77
2023-01-10T04:02:55.697Z,4.76
2023-01-10T04:05:22.172Z,4.74
2023-01-10T04:07:49.167Z,4.80
2023-01-10T04:10:16.091Z,4.79
2023-01-10T04:12:42.728Z,4.78
2023-01-10T04:15:09.768Z,4.72
2023-01-10T04:17:36.322Z,4.83
2023-01-10T04:20:02.858Z,4.80
2023-01-10T04:22:29.408Z,4.82
2023-01-10T04:24:55.867Z,4.78
2023-01-10T04:27:22.377Z,4.79
2023-01-10T04:29:48.853Z,4.79
2023-01-10T04:32:15.401Z,4.80
2023-01-10T04:34:41.865Z,4.78
2023-01-10T04:37:08.446Z,4.78
2023-01-10T04:39:35.083Z,4.78
2023-01-10T04:42:01.580Z,4.77
2023-01-10T04:44:28.041Z,4.74
2023-01-10T04:46:54.500Z,4.68
2023-01-10T04:49:21.182Z,4.71
2023-01-10T04:51:47.659Z,4.69
2023-01-10T04:54:14.249Z,4.69
2023-01-10T04:56:40.686Z,4.68
2023-01-10T04:59:07.123Z,4.69
2023-01-10T05:01:35.432Z,4.67
2023-01-10T05:04:03.247Z,4.69
2023-01-10T05:06:29.785Z,4.70
2023-01-10T05:08:56.443Z,4.74
2023-01-10T05:11:23.114Z,4.79
2023-01-10T05:13:50.085Z,4.77
2023-01-10T05:16:17.163Z,4.75
2023-01-10T05:18:43.736Z,4.71
2023-01-10T05:21:11.780Z,4.74
2023-01-10T05:23:38.920Z,4.73
2023-01-10T05:26:16.889Z,4.71
2023-01-10T05:28:43.532Z,4.69
2023-01-10T05:31:12.517Z,4.72
2023-01-10T05:33:39.657Z,4.74
2023-01-10T05:36:07.088Z,4.77
2023-01-10T05:38:33.978Z,4.80
2023-01-10T05:41:00.927Z,4.84
2023-01-10T05:43:27.918Z,4.85
2023-01-10T05:45:54.540Z,4.85
2023-01-10T05:48:21.137Z,4.82
2023-01-10T05:50:49.617Z,4.86
2023-01-10T05:53:16.188Z,4.81
2023-01-10T05:55:42.739Z,4.81
2023-01-10T05:58:11.129Z,4.81
2023-01-10T06:00:39.731Z,4.80
2023-01-10T06:03:06.973Z,4.82
2023-01-10T06:05:33.496Z,4.81
2023-01-10T06:07:59.975Z,4.80
2023-01-10T06:10:27.264Z,4.82
2023-01-10T06:12:54.011Z,4.82
2023-01-10T06:15:20.477Z,4.79
2023-01-10T06:17:46.999Z,4.76
2023-01-10T06:20:14.769Z,4.75
2023-01-10T06:22:42.425Z,4.69
2023-01-10T06:25:10.705Z,4.68
2023-01-10T06:27:42.291Z,4.68
2023-01-10T06:30:11.139Z,4.68
2023-01-10T06:32:37.791Z,4.72
2023-01-10T06:35:05.031Z,4.64
2023-01-10T06:37:31.540Z,4.64
2023-01-10T06:39:58.115Z,4.65
2023-01-10T06:42:24.787Z,4.65
2023-01-10T06:44:51.334Z,4.67
2023-01-10T06:47:17.893Z,4.59
2023-01-10T06:49:44.561Z,4.60
2023-01-10T06:52:11.292Z,4.62
2023-01-10T06:54:37.761Z,4.68
2023-01-10T06:57:04.798Z,4.70
2023-01-10T06:59:31.415Z,4.68
2023-01-10T07:01:57.951Z,4.63
2023-01-10T07:04:24.545Z,4.61
2023-01-10T07:06:51.052Z,4.64
2023-01-10T07:09:17.670Z,4.61
2023-01-10T07:11:44.225Z,4.60
2023-01-10T07:14:10.769Z,4.62
2023-01-10T07:16:37.288Z,4.63
2023-01-10T07:19:03.814Z,4.60
2023-01-10T07:21:30.330Z,4.62
2023-01-10T07:23:56.782Z,4.57
2023-01-10T07:26:24.285Z,4.54
2023-01-10T07:28:53.889Z,4.49
2023-01-10T07:31:22.918Z,4.51
2023-01-10T07:33:51.107Z,4.50
2023-01-10T07:36:17.851Z,4.48
2023-01-10T07:38:44.460Z,4.47
2023-01-10T07:41:11.018Z,4.50
2023-01-10T07:43:37.595Z,4.50
2023-01-10T07:46:12.082Z,4.51
2023-01-10T07:48:41.385Z,4.57
2023-01-10T07:51:07.930Z,4.53
2023-01-10T07:53:34.415Z,4.56
2023-01-10T07:56:02.559Z,4.50
2023-01-10T07:58:29.594Z,4.49
2023-01-10T08:00:59.819Z,4.54
2023-01-10T08:03:27.009Z,4.50
2023-01-10T08:06:07.574Z,4.51
2023-01-10T08:08:34.820Z,4.51
2023-01-10T08:11:02.732Z,4.51
2023-01-10T08:13:29.811Z,4.51
2023-01-10T08:15:56.670Z,4.48
2023-01-10T08:18:24.190Z,4.44
2023-01-10T08:20:53.778Z,4.46
2023-01-10T08:23:21.047Z,4.42
2023-01-10T08:25:48.071Z,4.47
2023-01-10T08:28:14.706Z,4.47
2023-01-10T08:30:41.282Z,4.45
2023-01-10T08:33:08.747Z,4.43
2023-01-10T08:35:42.984Z,4.43
2023-01-10T08:38:10.862Z,4.49
2023-01-10T08:40:37.692Z,4.47
2023-01-10T08:43:10.326Z,4.51
2023-01-10T08:45:37.504Z,4.53
2023-01-10T08:48:05.056Z,4.53
2023-01-10T08:50:31.616Z,4.52
2023-01-10T08:52:59.484Z,4.45
2023-01-10T08:55:26.845Z,4.44
2023-01-10T08:57:53.371Z,4.53
2023-01-10T09:00:23.277Z,4.49
2023-01-10T09:02:49.962Z,4.52
2023-01-10T09:05:26.993Z,4.53
2023-01-10T09:08:00.324Z,4.43
2023-01-10T09:10:28.398Z,4.49
2023-01-10T09:12:54.896Z,4.56
2023-01-10T09:15:22.853Z,4.51
2023-01-10T09:17:52.128Z,4.50
2023-01-10T09:20:20.139Z,4.45
2023-01-10T09:22:46.779Z,4.46
2023-01-10T09:25:13.318Z,4.48
2023-01-10T09:27:39.903Z,4.50
2023-01-10T09:30:06.861Z,4.53
2023-01-10T09:32:33.405Z,4.48
2023-01-10T09:34:59.883Z,4.51
2023-01-10T09:37:26.388Z,4.58
2023-01-10T09:39:52.935Z,4.54
2023-01-10T09:42:28.386Z,4.67
2023-01-10T09:45:22.452Z,4.63
2023-01-10T09:47:52.031Z,4.61
2023-01-10T09:50:36.135Z,4.70
2023-01-10T09:53:09.334Z,4.74
2023-01-10T09:55:37.085Z,4.82
2023-01-10T09:58:17.992Z,4.83
2023-01-10T10:00:49.209Z,4.90
2023-01-10T10:03:33.157Z,4.89
2023-01-10T10:06:11.301Z,4.89
2023-01-10T10:08:42.221Z,5.00
2023-01-10T10:11:26.545Z,5.04
2023-01-10T10:14:25.175Z,5.03
2023-01-10T10:17:07.002Z,4.97
2023-01-10T10:19:45.284Z,4.92
2023-01-10T10:22:19.748Z,4.96
2023-01-10T10:25:09.196Z,4.96
2023-01-10T10:27:41.599Z,5.04
2023-01-10T10:30:19.872Z,4.96
2023-01-10T10:33:05.618Z,5.01
2023-01-10T10:35:44.954Z,5.00
2023-01-10T10:38:36.442Z,5.01
2023-01-10T10:41:03.406Z,5.14
2023-01-10T10:43:35.913Z,5.06
2023-01-10T10:46:06.010Z,5.15
2023-01-10T10:48:37.018Z,5.24
2023-01-10T10:51:21.706Z,5.30
2023-01-10T10:53:48.363Z,5.32
2023-01-10T10:56:18.698Z,5.27
2023-01-10T10:58:48.812Z,5.20
2023-01-10T11:01:16.487Z,5.22
2023-01-10T11:03:47.684Z,5.19
2023-01-10T11:06:15.297Z,5.20
2023-01-10T11:08:44.784Z,5.12
2023-01-10T11:11:25.700Z,5.03
2023-01-10T11:13:56.321Z,5.13
2023-01-10T11:16:34.303Z,5.08
2023-01-10T11:19:27.418Z,5.12
2023-01-10T11:22:00.733Z,5.22
2023-01-10T11:24:31.346Z,5.16
2023-01-10T11:27:00.417Z,5.13
2023-01-10T11:29:37.967Z,5.10
2023-01-10T11:32:15.146Z,5.10
2023-01-10T11:35:02.836Z,5.07
2023-01-10T11:37:32.660Z,5.05
2023-01-10T11:40:25.777Z,5.07
2023-01-10T11:42:59.173Z,4.95
2023-01-10T11:45:31.513Z,5.08
2023-01-10T11:48:22.957Z,5.10
2023-01-10T11:50:55.592Z,5.02
2023-01-10T11:53:41.158Z,5.00
2023-01-10T11:56:11.603Z,5.01
2023-01-10T11:58:38.494Z,5.00
2023-01-10T12:01:05.287Z,5.01
2023-01-10T12:03:37.384Z,5.08
2023-01-10T12:06:09.933Z,5.06
2023-01-10T12:08:39.057Z,5.17
2023-01-10T12:11:28.253Z,5.19
2023-01-10T12:13:57.881Z,5.19
2023-01-10T12:16:34.895Z,5.20
2023-01-10T12:19:04.778Z,5.17
2023-01-10T12:21:42.403Z,5.20
2023-01-10T12:24:39.158Z,5.17
2023-01-10T12:27:06.352Z,5.29
2023-01-10T12:29:41.302Z,5.20
2023-01-10T12:32:18.168Z,5.18
2023-01-10T12:34:49.727Z,5.24
2023-01-10T12:37:23.458Z,5.20
2023-01-10T12:40:10.646Z,5.25
2023-01-10T12:43:08.458Z,5.29
2023-01-10T12:45:40.743Z,5.28
2023-01-10T12:48:15.412Z,5.31
2023-01-10T12:50:45.479Z,5.27
2023-01-10T12:53:53.244Z,5.37
2023-01-10T12:56:20.811Z,5.36
2023-01-10T12:58:51.413Z,5.34
2023-01-10T13:01:40.629Z,5.20
2023-01-10T13:04:10.586Z,5.20
2023-01-10T13:06:41.239Z,5.23
2023-01-10T13:09:11.799Z,5.29
2023-01-10T13:11:46.324Z,5.34
2023-01-10T13:14:15.330Z,5.38
2023-01-10T13:17:08.310Z,5.29
2023-01-10T13:19:34.842Z,5.27
2023-01-10T13:22:19.112Z,5.25
2023-01-10T13:24:56.797Z,5.18
2023-01-10T13:27:24.085Z,5.14
2023-01-10T13:29:51.204Z,5.14
2023-01-10T13:32:27.872Z,5.04
2023-01-10T13:34:55.514Z,5.06
2023-01-10T13:37:28.166Z,5.04
2023-01-10T13:40:01.654Z,4.96
2023-01-10T13:42:56.482Z,4.96
2023-01-10T13:45:23.383Z,4.93
2023-01-10T13:47:56.179Z,4.97
2023-01-10T13:50:22.847Z,4.97
2023-01-10T13:53:12.674Z,4.90
2023-01-10T13:55:39.292Z,4.91
2023-01-10T13:58:15.590Z,4.86
2023-01-10T14:01:07.527Z,4.90
2023-01-10T14:03:50.371Z,4.89
2023-01-10T14:06:29.620Z,4.80
2023-01-10T14:09:06.478Z,4.83
2023-01-10T14:11:51.602Z,4.84
2023-01-10T14:14:38.175Z,4.88
2023-01-10T14:17:27.661Z,4.83
2023-01-10T14:20:03.005Z,4.85
2023-01-10T14:22:34.518Z,4.84
2023-01-10T14:25:04.976Z,4.82
2023-01-10T14:27:46.472Z,4.84
2023-01-10T14:30:38.639Z,4.80
2023-01-10T14:33:22.865Z,4.74
2023-01-10T14:36:00.301Z,4.72
2023-01-10T14:38:29.667Z,4.79
2023-01-10T14:41:02.167Z,4.78
2023-01-10T14:43:37.723Z,4.59
2023-01-10T14:46:11.176Z,4.59
2023-01-10T14:48:45.931Z,4.58
2023-01-10T14:51:25.285Z,4.55
2023-01-10T14:54:02.941Z,4.53
2023-01-10T14:56:39.702Z,4.48
2023-01-10T14:59:20.548Z,4.43
2023-01-10T15:01:49.478Z,4.37
2023-01-10T15:04:17.606Z,4.33
2023-01-10T15:06:58.736Z,4.28
2023-01-10T15:09:25.968Z,4.20
2023-01-10T15:11:53.695Z,4.23
2023-01-10T15:14:23.444Z,4.18
2023-01-10T15:16:51.998Z,4.13
2023-01-10T15:19:20.930Z,4.12
2023-01-10T15:21:47.797Z,4.13
2023-01-10T15:24:42.634Z,4.07
2023-01-10T15:27:14.481Z,4.04
2023-01-10T15:29:46.912Z,4.07
2023-01-10T15:32:22.311Z,3.98
2023-01-10T15:34:50.303Z,3.95
2023-01-10T15:37:22.767Z,3.90
2023-01-10T15:39:49.315Z,3.90
2023-01-10T15:42:22.460Z,3.88
2023-01-10T15:44:52.961Z,3.80
2023-01-10T15:47:36.055Z,3.74
2023-01-10T15:50:18.008Z,3.80
2023-01-10T15:52:55.175Z,3.84
2023-01-10T15:55:45.292Z,3.72
2023-01-10T15:58:22.983Z,3.69
2023-01-10T16:00:52.273Z,3.67
2023-01-10T16:03:29.487Z,3.64
2023-01-10T16:05:59.107Z,3.58
2023-01-10T16:08:28.506Z,3.58
2023-01-10T16:10:59.705Z,3.63
2023-01-10T16:15:27.838Z,3.58
2023-01-10T16:17:54.739Z,3.55
2023-01-10T16:20:27.721Z,3.54
2023-01-10T16:22:55.939Z,3.57
2023-01-10T16:25:27.830Z,3.47
2023-01-10T16:27:56.413Z,3.51
2023-01-10T16:30:23.701Z,3.51
2023-01-10T16:32:50.324Z,3.50
2023-01-10T16:35:18.507Z,3.46
2023-01-10T16:37:46.324Z,3.47
2023-01-10T16:40:21.971Z,3.48
2023-01-10T16:43:06.875Z,3.40
2023-01-10T16:45:33.788Z,3.37
2023-01-10T16:48:01.388Z,3.34
2023-01-10T16:50:28.070Z,3.39
2023-01-10T16:52:54.800Z,3.36
2023-01-10T16:55:23.951Z,3.40
2023-01-10T16:57:51.673Z,3.31
2023-01-10T17:00:20.215Z,3.31
2023-01-10T17:02:46.755Z,3.30
2023-01-10T17:05:16.294Z,3.23
2023-01-10T17:07:43.103Z,3.19
2023-01-10T17:10:10.191Z,3.18
2023-01-10T17:12:37.941Z,3.19
2023-01-10T17:15:05.855Z,3.16
2023-01-10T17:17:33.143Z,3.12
2023-01-10T17:19:59.884Z,3.08
2023-01-10T17:22:26.617Z,3.08
2023-01-10T17:24:53.189Z,3.00
2023-01-10T17:27:22.796Z,2.98
2023-01-10T17:29:49.489Z,2.97
2023-01-10T17:32:16.206Z,3.07
2023-01-10T17:34:42.790Z,3.02
2023-01-10T17:37:09.588Z,3.03
2023-01-10T17:39:37.896Z,2.95
2023-01-10T17:42:05.833Z,2.99
2023-01-10T17:44:32.617Z,2.95
2023-01-10T17:46:59.205Z,2.94
2023-01-10T17:49:25.721Z,2.94
2023-01-10T17:51:53.558Z,2.91
2023-01-10T17:54:21.517Z,2.98
2023-01-10T17:56:48.038Z,3.04
2023-01-10T17:59:14.791Z,3.00
2023-01-10T18:01:42.301Z,2.95
2023-01-10T18:04:08.998Z,3.00
2023-01-10T18:06:35.567Z,2.98
2023-01-10T18:09:02.281Z,2.98
2023-01-10T18:11:30.617Z,3.01
2023-01-10T18:13:57.579Z,2.95
2023-01-10T18:16:27.078Z,2.96
2023-01-10T18:18:53.963Z,2.90
2023-01-10T18:21:20.709Z,2.88
2023-01-10T18:23:47.894Z,2.90
2023-01-10T18:26:14.641Z,2.90
2023-01-10T18:28:43.358Z,2.91
2023-01-10T18:31:16.613Z,2.92
2023-01-10T18:33:43.707Z,2.79
2023-01-10T18:36:14.698Z,2.74
2023-01-10T18:38:41.594Z,2.73
2023-01-10T18:41:08.109Z,2.77
2023-01-10T18:43:34.779Z,2.73
2023-01-10T18:46:03.839Z,2.78
2023-01-10T18:48:30.426Z,2.71
2023-01-10T18:51:00.720Z,2.70
2023-01-10T18:53:27.600Z,2.80
2023-01-10T18:55:59.181Z,2.82
2023-01-10T18:58:27.706Z,2.71
2023-01-10T19:00:54.422Z,2.68
2023-01-10T19:03:21.001Z,2.72
2023-01-10T19:05:47.540Z,2.64
2023-01-10T19:08:14.104Z,2.68
2023-01-10T19:11:07.162Z,2.64
2023-01-10T19:13:30.830Z,2.68
2023-01-10T19:16:09.228Z,2.65
2023-01-10T19:18:36.045Z,2.61
2023-01-10T19:21:02.611Z,2.68
2023-01-10T19:23:29.481Z,2.67
2023-01-10T19:25:57.670Z,2.69
2023-01-10T19:28:24.565Z,2.63
2023-01-10T19:31:03.523Z,2.62
2023-01-10T19:33:32.852Z,2.57
2023-01-10T19:35:59.579Z,2.49
2023-01-10T19:38:26.100Z,2.49
2023-01-10T19:40:53.106Z,2.52
2023-01-10T19:43:22.716Z,2.45
2023-01-10T19:45:49.223Z,2.49
2023-01-10T19:48:15.879Z,2.51
2023-01-10T19:50:42.482Z,2.42
2023-01-10T19:53:09.026Z,2.37
2023-01-10T19:55:35.833Z,2.30
2023-01-10T19:58:02.729Z,2.21
2023-01-10T20:00:29.963Z,2.15
2023-01-10T20:02:57.618Z,2.00
2023-01-10T20:05:24.618Z,2.00
2023-01-10T20:07:52.068Z,1.89
2023-01-10T20:10:19.044Z,1.83
2023-01-10T20:12:45.779Z,1.82
2023-01-10T20:15:12.754Z,1.76
2023-01-10T20:17:40.658Z,1.77
2023-01-10T20:20:07.907Z,1.78
2023-01-10T20:22:36.566Z,1.68
2023-01-10T20:25:03.132Z,1.56
2023-01-10T20:27:32.600Z,1.54
2023-01-10T20:29:59.139Z,1.56
2023-01-10T20:32:40.717Z,1.50
2023-01-10T20:35:07.441Z,1.55
2023-01-10T20:37:33.931Z,1.53
2023-01-10T20:40:00.563Z,1.53
2023-01-10T20:42:27.031Z,1.41
2023-01-10T20:44:53.580Z,1.42
2023-01-10T20:47:21.708Z,1.37
2023-01-10T20:49:48.252Z,1.41
2023-01-10T20:52:14.721Z,1.41
2023-01-10T20:54:41.461Z,1.44
2023-01-10T20:57:08.065Z,1.47
2023-01-10T20:59:34.697Z,1.44
2023-01-10T21:02:02.331Z,1.16
2023-01-10T21:04:29.598Z,1.25
2023-01-10T21:06:56.334Z,1.21
2023-01-10T21:09:23.160Z,1.21
2023-01-10T21:12:02.203Z,1.19
2023-01-10T21:14:36.199Z,1.17
2023-01-10T21:17:02.749Z,1.12
2023-01-10T21:19:29.574Z,1.06
2023-01-10T21:21:56.112Z,1.08
2023-01-10T21:24:24.868Z,1.04
2023-01-10T21:26:51.403Z,1.03
2023-01-10T21:29:19.098Z,1.16
2023-01-10T21:31:45.583Z,1.11
2023-01-10T21:34:12.077Z,1.12
2023-01-10T21:36:38.647Z,1.17
2023-01-10T21:39:05.337Z,1.08
2023-01-10T21:41:50.736Z,1.02
2023-01-10T21:44:17.492Z,1.08
2023-01-10T21:46:46.708Z,1.12
2023-01-10T21:49:13.876Z,1.17
2023-01-10T21:51:40.731Z,1.14
2023-01-10T21:54:07.652Z,1.15
2023-01-10T21:56:34.386Z,1.17
2023-01-10T21:59:01.093Z,1.16
2023-01-10T22:01:27.639Z,1.11
2023-01-10T22:03:54.170Z,1.14
2023-01-10T22:06:20.946Z,1.11
2023-01-10T22:08:47.525Z,1.05
2023-01-10T22:11:14.024Z,0.96
2023-01-10T22:13:40.656Z,1.01
2023-01-10T22:16:07.460Z,1.09
2023-01-10T22:18:33.976Z,1.07
2023-01-10T22:21:00.595Z,1.10
2023-01-10T22:23:28.693Z,1.04
2023-01-10T22:25:58.605Z,0.97
2023-01-10T22:28:25.164Z,1.01
2023-01-10T22:30:51.832Z,0.95
2023-01-10T22:33:18.698Z,1.04
2023-01-10T22:35:45.227Z,1.02
2023-01-10T22:38:11.869Z,1.02
2023-01-10T22:40:38.354Z,1.06
2023-01-10T22:43:04.866Z,1.14
2023-01-10T22:45:31.674Z,1.20
2023-01-10T22:47:58.414Z,1.02
2023-01-10T22:50:25.009Z,1.08
2023-01-10T22:52:51.569Z,1.05
2023-01-10T22:55:19.702Z,1.06
2023-01-10T22:57:47.783Z,1.04
2023-01-10T23:00:14.990Z,1.02
2023-01-10T23:02:41.558Z,0.96
2023-01-10T23:05:08.347Z,0.98
2023-01-10T23:07:34.813Z,1.01
2023-01-10T23:10:01.296Z,1.02
2023-01-10T23:12:27.835Z,0.99
2023-01-10T23:14:54.379Z,1.01
2023-01-10T23:17:20.839Z,1.02
2023-01-10T23:19:47.256Z,1.10
2023-01-10T23:22:13.678Z,1.16
2023-01-10T23:24:40.126Z,1.22
2023-01-10T23:27:06.556Z,1.21
2023-01-10T23:29:32.926Z,1.27
2023-01-10T23:31:59.391Z,1.23
2023-01-10T23:34:25.899Z,1.25
2023-01-10T23:36:52.308Z,1.33
2023-01-10T23:39:19.146Z,1.38
2023-01-10T23:41:45.572Z,1.50
2023-01-10T23:44:12.024Z,1.49
2023-01-10T23:46:38.504Z,1.44
2023-01-10T23:49:04.986Z,1.54
2023-01-10T23:51:31.593Z,1.52
2023-01-10T23:53:58.063Z,1.51
2023-01-10T23:56:24.650Z,1.44
2023-01-10T23:58:52.576Z,1.48
